createdAt,value
2023-04-09T00:01:22.527Z,5.85
2023-04-09T00:04:24.586Z,6.63
2023-04-09T00:07:26.786Z,6.75
2023-04-09T00:10:29.687Z,6.25
2023-04-09T00:13:39.360Z,4.93
2023-04-09T00:16:41.924Z,6.50
2023-04-09T00:19:45.085Z,8.85
2023-04-09T00:22:47.054Z,7.85
2023-04-09T00:25:49.252Z,6.32
2023-04-09T00:28:51.707Z,7.70
2023-04-09T00:31:53.900Z,7.43
2023-04-09T00:34:56.004Z,8.38
2023-04-09T00:37:59.951Z,6.28
2023-04-09T00:41:02.104Z,5.85
2023-04-09T00:44:04.160Z,6.20
2023-04-09T00:47:06.377Z,5.07
2023-04-09T00:50:08.850Z,5.97
2023-04-09T00:53:13.134Z,5.78
2023-04-09T00:56:16.680Z,5.05
2023-04-09T00:59:19.952Z,5.60
2023-04-09T01:02:22.175Z,5.15
2023-04-09T01:05:36.035Z,6.40
2023-04-09T01:09:05.782Z,6.45
2023-04-09T01:12:27.492Z,6.18
2023-04-09T01:15:36.829Z,4.80
2023-04-09T01:19:12.766Z,5.57
2023-04-09T01:22:48.948Z,6.35
2023-04-09T01:26:03.020Z,5.95
2023-04-09T01:29:07.396Z,4.70
2023-04-09T01:32:12.412Z,4.25
2023-04-09T01:35:14.840Z,4.40
2023-04-09T01:38:18.828Z,5.50
2023-04-09T01:41:22.187Z,4.85
2023-04-09T01:44:26.355Z,5.35
2023-04-09T01:47:28.840Z,5.95
2023-04-09T01:50:31.731Z,4.25
2023-04-09T01:56:45.465Z,5.35
2023-04-09T01:59:47.577Z,5.63
2023-04-09T02:03:07.150Z,5.18
2023-04-09T02:06:22.847Z,5.45
2023-04-09T02:09:26.562Z,5.53
2023-04-09T02:12:31.810Z,4.07
2023-04-09T02:15:36.630Z,5.05
2023-04-09T02:18:38.715Z,5.20
2023-04-09T02:21:40.730Z,4.97
2023-04-09T02:24:44.093Z,4.90
2023-04-09T02:27:46.094Z,5.10
2023-04-09T02:30:48.106Z,4.18
2023-04-09T02:33:51.587Z,4.47
2023-04-09T02:36:54.850Z,4.37
2023-04-09T02:39:56.929Z,4.65
2023-04-09T02:42:59.237Z,3.90
2023-04-09T02:46:01.378Z,3.40
2023-04-09T02:49:03.466Z,5.03
2023-04-09T02:52:05.750Z,4.22
2023-04-09T02:55:08.400Z,3.78
2023-04-09T02:58:10.574Z,3.55
2023-04-09T03:01:12.656Z,3.88
2023-04-09T03:04:14.802Z,4.35
2023-04-09T03:07:16.887Z,4.80
2023-04-09T03:10:18.866Z,4.07
2023-04-09T03:13:20.988Z,3.97
2023-04-09T03:16:25.366Z,4.10
2023-04-09T03:19:27.451Z,5.30
2023-04-09T03:22:29.435Z,4.40
2023-04-09T03:25:32.521Z,5.40
2023-04-09T03:28:34.540Z,5.20
2023-04-09T03:31:36.691Z,4.80
2023-04-09T03:34:38.914Z,4.43
2023-04-09T03:37:40.946Z,4.15
2023-04-09T03:40:43.151Z,4.22
2023-04-09T03:43:45.472Z,4.03
2023-04-09T03:46:47.581Z,4.35
2023-04-09T03:49:49.714Z,4.65
2023-04-09T03:52:51.765Z,3.60
2023-04-09T03:55:53.769Z,3.13
2023-04-09T03:58:55.771Z,4.13
2023-04-09T04:01:57.901Z,3.13
2023-04-09T04:05:00.570Z,4.72
2023-04-09T04:08:02.744Z,3.85
2023-04-09T04:11:05.683Z,3.72
2023-04-09T04:14:07.762Z,3.38
2023-04-09T04:17:11.729Z,3.38
2023-04-09T04:20:13.947Z,3.47
2023-04-09T04:23:15.948Z,3.97
2023-04-09T04:26:19.097Z,3.10
2023-04-09T04:29:21.176Z,4.03
2023-04-09T04:32:23.277Z,2.85
2023-04-09T04:35:25.501Z,3.70
2023-04-09T04:38:28.625Z,4.18
2023-04-09T04:41:30.690Z,3.47
2023-04-09T04:44:32.774Z,3.38
2023-04-09T04:47:34.856Z,3.17
2023-04-09T04:50:36.912Z,3.03
2023-04-09T04:53:38.904Z,3.05
2023-04-09T04:56:41.167Z,3.13
2023-04-09T04:59:43.334Z,3.88
2023-04-09T05:02:45.605Z,3.63
2023-04-09T05:05:48.570Z,5.43
2023-04-09T05:08:51.199Z,4.50
2023-04-09T05:11:53.628Z,3.80
2023-04-09T05:14:57.150Z,2.97
2023-04-09T05:17:59.744Z,3.67
2023-04-09T05:24:06.425Z,3.78
2023-04-09T05:27:08.473Z,3.60
2023-04-09T05:30:10.905Z,3.35
2023-04-09T05:33:13.197Z,4.03
2023-04-09T05:36:19.138Z,3.67
2023-04-09T05:39:21.250Z,2.75
2023-04-09T05:42:24.533Z,3.40
2023-04-09T05:45:28.655Z,3.88
2023-04-09T05:48:30.852Z,3.08
2023-04-09T05:51:32.920Z,3.67
2023-04-09T05:54:36.573Z,3.25
2023-04-09T05:57:38.698Z,4.35
2023-04-09T06:00:40.902Z,3.75
2023-04-09T06:03:43.977Z,3.47
2023-04-09T06:06:47.195Z,4.15
2023-04-09T06:09:50.394Z,4.07
2023-04-09T06:12:52.416Z,3.30
2023-04-09T06:15:54.416Z,3.15
2023-04-09T06:18:57.062Z,2.42
2023-04-09T06:21:59.094Z,3.65
2023-04-09T06:25:01.206Z,3.60
2023-04-09T06:28:04.428Z,2.60
2023-04-09T06:31:07.655Z,4.35
2023-04-09T06:34:09.802Z,4.25
2023-04-09T06:37:11.818Z,3.83
2023-04-09T06:40:15.594Z,5.03
2023-04-09T06:43:17.955Z,5.88
2023-04-09T06:46:21.348Z,4.10
2023-04-09T06:49:23.426Z,5.18
2023-04-09T06:52:26.366Z,4.45
2023-04-09T06:55:28.462Z,5.85
2023-04-09T06:58:32.599Z,4.60
2023-04-09T07:01:38.598Z,4.60
2023-04-09T07:04:41.573Z,4.15
2023-04-09T07:07:43.662Z,4.88
2023-04-09T07:10:47.498Z,4.05
2023-04-09T07:13:49.552Z,4.28
2023-04-09T07:16:51.551Z,5.05
2023-04-09T07:19:54.645Z,5.03
2023-04-09T07:23:02.168Z,4.47
2023-04-09T07:26:05.563Z,3.53
2023-04-09T07:29:08.115Z,4.50
2023-04-09T07:32:10.138Z,4.80
2023-04-09T07:35:13.747Z,4.30
2023-04-09T07:38:16.442Z,4.45
2023-04-09T07:41:18.704Z,4.63
2023-04-09T07:44:23.393Z,4.70
2023-04-09T07:47:26.195Z,3.45
2023-04-09T07:50:28.634Z,4.47
2023-04-09T07:53:30.861Z,3.95
2023-04-09T07:56:32.845Z,4.35
2023-04-09T07:59:36.574Z,4.22
2023-04-09T08:02:38.949Z,4.50
2023-04-09T08:05:41.388Z,3.30
2023-04-09T08:08:43.922Z,4.03
2023-04-09T08:11:46.323Z,4.10
2023-04-09T08:14:48.753Z,4.32
2023-04-09T08:17:50.773Z,4.15
2023-04-09T08:20:52.745Z,3.92
2023-04-09T08:23:59.427Z,4.88
2023-04-09T08:27:02.236Z,3.72
2023-04-09T08:30:04.839Z,3.77
2023-04-09T08:33:09.691Z,5.30
2023-04-09T08:36:12.227Z,5.25
2023-04-09T08:39:15.513Z,5.10
2023-04-09T08:42:18.909Z,3.85
2023-04-09T08:45:21.150Z,4.88
2023-04-09T08:48:24.777Z,4.93
2023-04-09T08:54:30.829Z,5.22
2023-04-09T08:57:40.943Z,4.72
2023-04-09T09:00:43.783Z,5.50
2023-04-09T09:04:00.739Z,5.20
2023-04-09T09:07:06.892Z,5.47
2023-04-09T09:10:09.123Z,4.15
2023-04-09T09:13:25.179Z,5.22
2023-04-09T09:16:27.752Z,6.30
2023-04-09T09:19:33.569Z,5.77
2023-04-09T09:22:54.522Z,5.90
2023-04-09T09:25:57.609Z,4.93
2023-04-09T09:29:04.195Z,5.93
2023-04-09T09:32:13.813Z,5.63
2023-04-09T09:35:17.776Z,5.55
2023-04-09T09:38:20.719Z,6.22
2023-04-09T09:41:23.230Z,4.72
2023-04-09T09:44:33.247Z,4.45
2023-04-09T09:47:36.571Z,5.25
2023-04-09T09:50:44.203Z,6.13
2023-04-09T09:53:53.784Z,5.43
2023-04-09T09:57:03.038Z,4.85
2023-04-09T10:00:08.091Z,5.65
2023-04-09T10:03:16.243Z,5.53
2023-04-09T10:06:19.008Z,6.22
2023-04-09T10:09:23.487Z,5.32
2023-04-09T10:12:26.098Z,4.88
2023-04-09T10:15:31.969Z,5.32
2023-04-09T10:18:34.866Z,4.93
2023-04-09T10:21:56.651Z,5.05
2023-04-09T10:24:59.938Z,5.85
2023-04-09T10:31:07.904Z,5.30
2023-04-09T10:34:11.000Z,5.40
2023-04-09T10:37:20.528Z,4.15
2023-04-09T10:40:22.643Z,5.32
2023-04-09T10:43:24.659Z,5.05
2023-04-09T10:46:34.250Z,5.75
2023-04-09T10:49:39.289Z,5.40
2023-04-09T10:52:42.540Z,5.55
2023-04-09T10:58:51.883Z,6.05
2023-04-09T11:01:54.727Z,5.57
2023-04-09T11:05:16.420Z,4.68
2023-04-09T11:08:19.833Z,5.32
2023-04-09T11:11:26.887Z,4.70
2023-04-09T11:14:30.038Z,5.55
2023-04-09T11:17:37.124Z,5.65
2023-04-09T11:20:39.909Z,4.65
2023-04-09T11:23:43.384Z,4.88
2023-04-09T11:26:46.072Z,4.73
2023-04-09T11:29:48.074Z,4.47
2023-04-09T11:32:53.894Z,5.28
2023-04-09T11:35:57.108Z,5.28
2023-04-09T11:39:02.447Z,5.70
2023-04-09T11:42:04.590Z,3.67
2023-04-09T11:45:08.176Z,4.28
2023-04-09T11:51:13.747Z,3.58
2023-04-09T11:54:16.068Z,4.38
2023-04-09T12:00:24.920Z,3.30
2023-04-09T12:03:33.020Z,5.10
2023-04-09T12:06:40.828Z,4.07
2023-04-09T12:09:49.257Z,3.83
2023-04-09T12:12:51.376Z,3.72
2023-04-09T12:15:53.936Z,3.90
2023-04-09T12:18:56.037Z,3.47
2023-04-09T12:21:58.574Z,4.22
2023-04-09T12:25:00.640Z,3.53
2023-04-09T12:28:04.105Z,3.35
2023-04-09T12:31:10.351Z,3.63
2023-04-09T12:34:13.520Z,3.80
2023-04-09T12:37:15.836Z,4.40
2023-04-09T12:40:19.419Z,4.50
2023-04-09T12:43:21.578Z,3.45
2023-04-09T12:46:23.603Z,3.72
2023-04-09T12:49:25.861Z,4.68
2023-04-09T12:52:27.849Z,4.20
2023-04-09T12:55:29.890Z,5.07
2023-04-09T12:58:32.043Z,4.72
2023-04-09T13:01:35.726Z,4.40
2023-04-09T13:04:37.939Z,4.47
2023-04-09T13:07:42.828Z,6.15
2023-04-09T13:10:46.554Z,4.47
2023-04-09T13:13:49.548Z,5.07
2023-04-09T13:16:52.803Z,4.63
2023-04-09T13:19:56.251Z,4.93
2023-04-09T13:22:58.280Z,4.85
2023-04-09T13:26:01.339Z,6.07
2023-04-09T13:29:04.345Z,5.03
2023-04-09T13:32:11.295Z,5.40
2023-04-09T13:35:13.639Z,4.18
2023-04-09T13:38:16.729Z,4.65
2023-04-09T13:41:18.720Z,4.30
2023-04-09T13:44:21.376Z,4.10
2023-04-09T13:47:24.197Z,4.22
2023-04-09T13:50:26.613Z,5.18
2023-04-09T13:53:31.394Z,4.45
2023-04-09T13:56:33.418Z,3.55
2023-04-09T13:59:36.247Z,4.82
2023-04-09T14:02:38.470Z,4.60
2023-04-09T14:05:40.701Z,4.43
2023-04-09T14:08:43.724Z,4.60
2023-04-09T14:11:45.756Z,4.82
2023-04-09T14:14:47.908Z,4.75
2023-04-09T14:17:50.007Z,4.18
2023-04-09T14:20:52.222Z,5.40
2023-04-09T14:23:54.205Z,5.82
2023-04-09T14:26:56.986Z,4.55
2023-04-09T14:29:59.912Z,8.10
2023-04-09T14:33:02.065Z,7.05
2023-04-09T14:36:04.392Z,8.70
2023-04-09T14:39:06.370Z,5.07
2023-04-09T14:42:14.583Z,4.05
2023-04-09T14:45:16.843Z,5.10
2023-04-09T14:48:18.888Z,4.10
2023-04-09T14:51:21.009Z,4.82
2023-04-09T14:54:23.030Z,5.10
2023-04-09T14:57:25.826Z,5.95
2023-04-09T15:00:27.853Z,4.60
2023-04-09T15:03:30.014Z,5.78
2023-04-09T15:06:32.362Z,6.20
2023-04-09T15:09:34.416Z,5.50
2023-04-09T15:12:36.540Z,5.10
2023-04-09T15:15:41.249Z,4.93
2023-04-09T15:18:43.224Z,5.63
2023-04-09T15:21:45.332Z,4.72
2023-04-09T15:24:47.451Z,5.18
2023-04-09T15:27:49.839Z,5.65
2023-04-09T15:30:51.800Z,6.45
2023-04-09T15:33:53.842Z,5.07
2023-04-09T15:36:55.944Z,5.70
2023-04-09T15:39:59.085Z,5.22
2023-04-09T15:43:05.440Z,3.83
2023-04-09T15:46:09.571Z,3.95
2023-04-09T15:49:11.730Z,4.15
2023-04-09T15:52:13.888Z,5.43
2023-04-09T15:55:17.056Z,3.58
2023-04-09T15:58:20.080Z,6.10
2023-04-09T16:01:22.437Z,4.53
2023-04-09T16:04:24.618Z,3.53
2023-04-09T16:07:26.853Z,5.03
2023-04-09T16:10:28.841Z,4.13
2023-04-09T16:13:31.073Z,4.68
2023-04-09T16:16:33.311Z,3.63
2023-04-09T16:19:35.633Z,3.65
2023-04-09T16:22:38.663Z,4.72
2023-04-09T16:25:45.009Z,3.28
2023-04-09T16:28:50.378Z,4.45
2023-04-09T16:31:52.932Z,4.35
2023-04-09T16:34:56.221Z,4.45
2023-04-09T16:37:59.293Z,3.47
2023-04-09T16:41:01.562Z,2.85
2023-04-09T16:44:04.119Z,4.03
2023-04-09T16:47:06.767Z,3.17
2023-04-09T16:50:12.095Z,2.50
2023-04-09T16:53:14.154Z,3.28
2023-04-09T16:56:16.801Z,2.78
2023-04-09T16:59:21.094Z,3.72
2023-04-09T17:02:24.952Z,3.22
2023-04-09T17:05:26.987Z,2.85
2023-04-09T17:08:29.017Z,4.15
2023-04-09T17:11:32.705Z,3.17
2023-04-09T17:14:36.822Z,2.08
2023-04-09T17:17:39.363Z,2.33
2023-04-09T17:20:41.406Z,1.92
2023-04-09T17:23:44.399Z,2.67
2023-04-09T17:26:46.442Z,2.72
2023-04-09T17:29:48.611Z,3.17
2023-04-09T17:32:51.267Z,2.90
2023-04-09T17:35:53.351Z,2.58
2023-04-09T17:38:56.734Z,2.03
2023-04-09T17:42:00.783Z,2.28
2023-04-09T17:48:04.967Z,2.75
2023-04-09T17:51:07.871Z,2.30
2023-04-09T17:54:09.931Z,1.98
2023-04-09T17:57:12.084Z,2.38
2023-04-09T18:00:14.606Z,2.30
2023-04-09T18:03:16.897Z,1.90
2023-04-09T18:06:19.144Z,2.17
2023-04-09T18:09:21.616Z,1.80
2023-04-09T18:12:23.760Z,1.50
2023-04-09T18:15:25.852Z,2.38
2023-04-09T18:18:29.657Z,1.80
2023-04-09T18:21:31.989Z,2.38
2023-04-09T18:24:34.588Z,1.92
2023-04-09T18:27:36.835Z,1.90
2023-04-09T18:30:38.977Z,1.90
2023-04-09T18:33:41.264Z,2.30
2023-04-09T18:36:43.378Z,3.28
2023-04-09T18:39:46.435Z,1.65
2023-04-09T18:42:52.530Z,2.20
2023-04-09T18:45:58.298Z,2.72
2023-04-09T18:49:00.296Z,2.47
2023-04-09T18:52:05.516Z,1.63
2023-04-09T18:55:09.530Z,2.35
2023-04-09T18:58:15.851Z,1.80
2023-04-09T19:01:20.140Z,1.88
2023-04-09T19:04:22.562Z,2.30
2023-04-09T19:07:24.555Z,2.25
2023-04-09T19:10:27.389Z,1.92
2023-04-09T19:13:29.615Z,1.77
2023-04-09T19:16:35.737Z,1.77
2023-04-09T19:19:37.852Z,1.90
2023-04-09T19:22:40.108Z,2.53
2023-04-09T19:25:42.964Z,2.10
2023-04-09T19:28:45.014Z,1.75
2023-04-09T19:31:47.121Z,2.33
2023-04-09T19:34:49.170Z,1.30
2023-04-09T19:37:51.477Z,1.73
2023-04-09T19:40:53.617Z,2.50
2023-04-09T19:43:57.242Z,2.95
2023-04-09T19:46:59.570Z,3.15
2023-04-09T19:50:01.729Z,1.95
2023-04-09T19:53:04.784Z,3.22
2023-04-09T19:56:07.275Z,3.65
2023-04-09T19:59:09.365Z,2.55
2023-04-09T20:02:11.525Z,4.22
2023-04-09T20:05:14.396Z,2.75
2023-04-09T20:08:16.794Z,3.13
2023-04-09T20:11:20.430Z,2.15
2023-04-09T20:14:22.525Z,2.05
2023-04-09T20:17:25.245Z,2.88
2023-04-09T20:20:27.362Z,4.00
2023-04-09T20:23:30.302Z,2.67
2023-04-09T20:26:32.455Z,2.70
2023-04-09T20:29:34.746Z,3.10
2023-04-09T20:32:37.877Z,3.08
2023-04-09T20:35:39.926Z,3.67
2023-04-09T20:38:42.007Z,3.25
2023-04-09T20:41:44.144Z,2.80
2023-04-09T20:44:46.204Z,3.30
2023-04-09T20:47:48.351Z,2.50
2023-04-09T20:50:53.933Z,3.42
2023-04-09T20:53:58.158Z,3.30
2023-04-09T20:57:01.610Z,3.03
2023-04-09T21:00:03.820Z,3.00
2023-04-09T21:03:06.059Z,3.38
2023-04-09T21:06:09.810Z,3.75
2023-04-09T21:09:13.880Z,4.07
2023-04-09T21:12:15.993Z,3.47
2023-04-09T21:15:18.078Z,3.17
2023-04-09T21:18:20.184Z,3.95
2023-04-09T21:21:22.283Z,3.03
2023-04-09T21:24:24.372Z,3.90
2023-04-09T21:27:26.462Z,4.50
2023-04-09T21:30:29.168Z,4.43
2023-04-09T21:33:31.318Z,4.57
2023-04-09T21:36:39.423Z,3.60
2023-04-09T21:39:42.142Z,3.80
2023-04-09T21:42:44.150Z,4.07
2023-04-09T21:45:46.729Z,3.67
2023-04-09T21:48:48.787Z,3.55
2023-04-09T21:51:50.876Z,5.80
2023-04-09T21:54:52.882Z,2.72
2023-04-09T21:57:56.291Z,3.38
2023-04-09T22:00:58.463Z,4.33
2023-04-09T22:04:02.168Z,3.30
2023-04-09T22:07:04.341Z,3.85
2023-04-09T22:10:07.037Z,2.97
2023-04-09T22:13:09.025Z,3.25
2023-04-09T22:16:11.434Z,3.95
2023-04-09T22:19:14.442Z,2.97
2023-04-09T22:22:17.727Z,3.58
2023-04-09T22:25:19.993Z,3.40
2023-04-09T22:28:29.357Z,4.03
2023-04-09T22:31:31.623Z,4.22
2023-04-09T22:34:34.133Z,5.00
2023-04-09T22:37:36.395Z,3.45
2023-04-09T22:40:38.443Z,3.33
2023-04-09T22:43:41.524Z,3.05
2023-04-09T22:46:43.565Z,3.10
2023-04-09T22:49:46.960Z,2.95
2023-04-09T22:52:51.620Z,3.05
2023-04-09T22:55:54.990Z,3.08
2023-04-09T22:58:57.033Z,4.30
2023-04-09T23:02:00.496Z,5.03
2023-04-09T23:05:02.642Z,3.10
2023-04-09T23:08:05.153Z,3.83
2023-04-09T23:11:07.368Z,3.97
2023-04-09T23:14:09.401Z,3.08
2023-04-09T23:17:11.486Z,3.55
2023-04-09T23:20:22.297Z,3.58
2023-04-09T23:23:24.438Z,4.35
2023-04-09T23:26:26.538Z,3.33
2023-04-09T23:29:28.640Z,4.13
2023-04-09T23:32:30.827Z,4.10
2023-04-09T23:35:33.276Z,3.00
2023-04-09T23:38:35.504Z,4.63
2023-04-09T23:41:38.740Z,4.10
2023-04-09T23:44:40.814Z,2.70
2023-04-09T23:47:42.989Z,4.03
2023-04-09T23:50:45.071Z,3.88
2023-04-09T23:53:47.232Z,3.47
2023-04-09T23:56:49.338Z,3.15
2023-04-09T23:59:52.394Z,4.40
